Taisho Maru — JI3307 — position and weather

sailwx.info

Track history (hours):
 
Tides and Currents Weather Stations Pressure Air Temp Water Temp Dewpoint Dewpoint Depression Visibility Wind Speed Wind Dir Waves Ship Positions

Taisho Maru

Last reported at 2015-Jan-27 11:33 UTC. Time now 2015-Jan-27 12:27 UTC.
Position N 35°26' E 139°41'.

Length 93 m; draft 4.8 m.

Type: Cargo ship. MMSI: 431300084.

Date/timePositionNaut miles runAvg speedWind from/ knotsBaromVisibWave heightAir tempDewpointWater temp
2015-Jan-27 11:33N 35°26' E 139°41'0 0.0
2015-Jan-27 10:33N 35°26' E 139°41'0 0.0
2015-Jan-27 09:33N 35°26' E 139°41'0 0.0
2015-Jan-27 08:33N 35°26' E 139°41'0 0.0
2015-Jan-27 07:33N 35°26' E 139°41'0 0.0
2015-Jan-27 06:33N 35°26' E 139°41'1 0.6
2015-Jan-27 05:31N 35°25' E 139°42'0 0.0
2015-Jan-27 04:31N 35°25' E 139°42'0 0.0
2015-Jan-27 03:32N 35°25' E 139°42'0 0.1
2015-Jan-27 02:33N 35°25' E 139°42'5 4.8
2015-Jan-27 01:33N 35°21' E 139°43'1111.0
2015-Jan-27 00:33N 35°10' E 139°46'1211.7
2015-Jan-26 23:33N 34°58' E 139°42'  
2015-Jan-18 00:18N 35°04' E 140°25'1514.5
2015-Jan-17 23:16N 34°57' E 140°09'1414.6
2015-Jan-17 22:18N 34°51' E 139°53'912.4
2015-Jan-17 21:33N 34°56' E 139°44'1313.4
2015-Jan-17 20:33N 35°09' E 139°45'1111.3
2015-Jan-17 19:34N 35°20' E 139°42'3 3.3
2015-Jan-17 18:32N 35°23' E 139°44'0 0.0
2015-Jan-17 17:32N 35°23' E 139°44'0 0.0
2015-Jan-17 16:32N 35°23' E 139°44'0 0.0
2015-Jan-17 15:32N 35°23' E 139°44'0 0.0
2015-Jan-17 14:32N 35°23' E 139°44'0 0.0
2015-Jan-17 13:32N 35°23' E 139°44'0 0.0
2015-Jan-17 12:29N 35°23' E 139°44'  
Track history (hours):
 
Tides and Currents Weather Stations Pressure Air Temp Water Temp Dewpoint Dewpoint Depression Visibility Wind Speed Wind Dir Waves Ship Positions

Taisho Maru

Last reported at 2015-Jan-27 11:33 UTC. Time now 2015-Jan-27 12:27 UTC.
Position N 35°26' E 139°41'.

Length 93 m; draft 4.8 m.

Type: Cargo ship. MMSI: 431300084.

Date/timePositionNaut miles runAvg speedWind from/ knotsBaromVisibWave heightAir tempDewpointWater temp
2015-Jan-27 11:33N 35°26' E 139°41'0 0.0
2015-Jan-27 10:33N 35°26' E 139°41'0 0.0
2015-Jan-27 09:33N 35°26' E 139°41'0 0.0
2015-Jan-27 08:33N 35°26' E 139°41'0 0.0
2015-Jan-27 07:33N 35°26' E 139°41'0 0.0
2015-Jan-27 06:33N 35°26' E 139°41'1 0.6
2015-Jan-27 05:31N 35°25' E 139°42'0 0.0
2015-Jan-27 04:31N 35°25' E 139°42'0 0.0
2015-Jan-27 03:32N 35°25' E 139°42'0 0.1
2015-Jan-27 02:33N 35°25' E 139°42'5 4.8
2015-Jan-27 01:33N 35°21' E 139°43'1111.0
2015-Jan-27 00:33N 35°10' E 139°46'1211.7
2015-Jan-26 23:33N 34°58' E 139°42'  
2015-Jan-18 00:18N 35°04' E 140°25'1514.5
2015-Jan-17 23:16N 34°57' E 140°09'1414.6
2015-Jan-17 22:18N 34°51' E 139°53'912.4
2015-Jan-17 21:33N 34°56' E 139°44'1313.4
2015-Jan-17 20:33N 35°09' E 139°45'1111.3
2015-Jan-17 19:34N 35°20' E 139°42'3 3.3
2015-Jan-17 18:32N 35°23' E 139°44'0 0.0
2015-Jan-17 17:32N 35°23' E 139°44'0 0.0
2015-Jan-17 16:32N 35°23' E 139°44'0 0.0
2015-Jan-17 15:32N 35°23' E 139°44'0 0.0
2015-Jan-17 14:32N 35°23' E 139°44'0 0.0
2015-Jan-17 13:32N 35°23' E 139°44'0 0.0
2015-Jan-17 12:29N 35°23' E 139°44'  

Dump ship's entire track history